Terminal Aerodrome Forecast
Issued by NWS Binghamton, NY

Home | Current Version | Previous Version | Text Only | Print | Product List | Glossary On
Versions: 1 2 3 4 5 6 7 8 9 10 11 12 13 14 15 16 17 18 19 20 21 22
000
FTUS41 KBGM 252300
TAFSYR
TAF
KSYR 252339Z 2600/2624 30005KT P6SM BKN250
     FM261500 03008KT P6SM OVC050
      TEMPO 2616/2618 2SM -SN OVC015
     FM261800 03006KT 1 1/2SM -SN OVC020=

USA.gov is the U.S. government's official web portal to all federal, state and local government web resources and services.